Georgios S — V7VV8 — position and weather

sailwx.info

Track history (hours):
 
Tides and Currents Weather Stations Pressure Air Temp Water Temp Dewpoint Dewpoint Depression Visibility Wind Speed Wind Dir Waves Ship Positions

Georgios S

Last reported at 2017-Sep-15 04:22 UTC. Time now 2017-Sep-24 10:39 UTC.
Position S 25°42' W 048°13'.
Warning: this ship's position is 9 days out of date.

Length 225 m; draft 11.2 m.

Type: Cargo ship. MMSI: 538007066.

Date/timePositionNaut miles runAvg speedWind from/ knotsBaromVisibWave heightAir tempDewpointWater temp
2017-Sep-15 04:22S 25°42' W 048°13'0 0.0
2017-Sep-15 03:59S 25°42' W 048°13'0 0.0
2017-Sep-15 03:22S 25°42' W 048°13'0 0.0
2017-Sep-15 02:55S 25°42' W 048°13'0 0.0
2017-Sep-15 02:29S 25°42' W 048°13'0 0.0
2017-Sep-15 01:59S 25°42' W 048°13'0 0.0
2017-Sep-15 01:25S 25°42' W 048°13'0 0.0
2017-Sep-15 00:58S 25°42' W 048°13'0 0.0
2017-Sep-15 00:28S 25°42' W 048°13'0 0.0
2017-Sep-14 22:53S 25°42' W 048°13'0 0.0
2017-Sep-14 22:29S 25°42' W 048°13'0 0.0
2017-Sep-14 21:37S 25°42' W 048°13'0 0.6
2017-Sep-14 21:30S 25°42' W 048°13'3 4.6
2017-Sep-14 20:47S 25°40' W 048°09'3 9.9
2017-Sep-14 20:30S 25°39' W 048°07'1812.0
2017-Sep-14 18:58S 25°29' W 047°49'612.1
2017-Sep-14 18:30S 25°26' W 047°44'612.1
2017-Sep-14 18:00S 25°23' W 047°38'611.9
2017-Sep-14 17:30S 25°20' W 047°33'612.0
2017-Sep-14 17:00S 25°18' W 047°27'612.0
2017-Sep-14 16:30S 25°15' W 047°21'611.8
2017-Sep-14 16:00S 25°13' W 047°15'611.7
2017-Sep-14 15:30S 25°10' W 047°09'611.7
2017-Sep-14 15:00S 25°08' W 047°03'611.7
2017-Sep-14 14:30S 25°05' W 046°57'611.7
2017-Sep-14 14:00S 25°03' W 046°51'611.6
2017-Sep-14 13:30S 25°01' W 046°45'611.8
2017-Sep-14 13:00S 24°59' W 046°39'611.9
2017-Sep-14 12:30S 24°58' W 046°33'712.0
2017-Sep-14 11:53S 24°56' W 046°25'512.1
2017-Sep-14 11:30S 24°55' W 046°20'612.1
2017-Sep-14 11:00S 24°53' W 046°13'611.8
2017-Sep-14 10:30S 24°52' W 046°07'25212.1
2017-Sep-13 13:39S 23°50' W 041°39'213.5
2017-Sep-13 13:30S 23°49' W 041°37'713.7
2017-Sep-13 13:00S 23°48' W 041°29'713.9
2017-Sep-13 12:30S 23°46' W 041°22'713.6
2017-Sep-13 12:00S 23°44' W 041°15'713.0
2017-Sep-13 11:30S 23°42' W 041°08'  
Track history (hours):
 
Tides and Currents Weather Stations Pressure Air Temp Water Temp Dewpoint Dewpoint Depression Visibility Wind Speed Wind Dir Waves Ship Positions

Georgios S

Last reported at 2017-Sep-15 04:22 UTC. Time now 2017-Sep-24 10:39 UTC.
Position S 25°42' W 048°13'.
Warning: this ship's position is 9 days out of date.

Length 225 m; draft 11.2 m.

Type: Cargo ship. MMSI: 538007066.

Date/timePositionNaut miles runAvg speedWind from/ knotsBaromVisibWave heightAir tempDewpointWater temp
2017-Sep-15 04:22S 25°42' W 048°13'0 0.0
2017-Sep-15 03:59S 25°42' W 048°13'0 0.0
2017-Sep-15 03:22S 25°42' W 048°13'0 0.0
2017-Sep-15 02:55S 25°42' W 048°13'0 0.0
2017-Sep-15 02:29S 25°42' W 048°13'0 0.0
2017-Sep-15 01:59S 25°42' W 048°13'0 0.0
2017-Sep-15 01:25S 25°42' W 048°13'0 0.0
2017-Sep-15 00:58S 25°42' W 048°13'0 0.0
2017-Sep-15 00:28S 25°42' W 048°13'0 0.0
2017-Sep-14 22:53S 25°42' W 048°13'0 0.0
2017-Sep-14 22:29S 25°42' W 048°13'0 0.0
2017-Sep-14 21:37S 25°42' W 048°13'0 0.6
2017-Sep-14 21:30S 25°42' W 048°13'3 4.6
2017-Sep-14 20:47S 25°40' W 048°09'3 9.9
2017-Sep-14 20:30S 25°39' W 048°07'1812.0
2017-Sep-14 18:58S 25°29' W 047°49'612.1
2017-Sep-14 18:30S 25°26' W 047°44'612.1
2017-Sep-14 18:00S 25°23' W 047°38'611.9
2017-Sep-14 17:30S 25°20' W 047°33'612.0
2017-Sep-14 17:00S 25°18' W 047°27'612.0
2017-Sep-14 16:30S 25°15' W 047°21'611.8
2017-Sep-14 16:00S 25°13' W 047°15'611.7
2017-Sep-14 15:30S 25°10' W 047°09'611.7
2017-Sep-14 15:00S 25°08' W 047°03'611.7
2017-Sep-14 14:30S 25°05' W 046°57'611.7
2017-Sep-14 14:00S 25°03' W 046°51'611.6
2017-Sep-14 13:30S 25°01' W 046°45'611.8
2017-Sep-14 13:00S 24°59' W 046°39'611.9
2017-Sep-14 12:30S 24°58' W 046°33'712.0
2017-Sep-14 11:53S 24°56' W 046°25'512.1
2017-Sep-14 11:30S 24°55' W 046°20'612.1
2017-Sep-14 11:00S 24°53' W 046°13'611.8
2017-Sep-14 10:30S 24°52' W 046°07'25212.1
2017-Sep-13 13:39S 23°50' W 041°39'213.5
2017-Sep-13 13:30S 23°49' W 041°37'713.7
2017-Sep-13 13:00S 23°48' W 041°29'713.9
2017-Sep-13 12:30S 23°46' W 041°22'713.6
2017-Sep-13 12:00S 23°44' W 041°15'713.0
2017-Sep-13 11:30S 23°42' W 041°08'  

Dump ship's entire track history